NCAR-RAP Real-Time Weather Data

Output produced by METARs form (12 August 2020  18:52 UTC)
found at http://weather.rap.ucar.edu/surface/
 
KFAR 121753Z 15011G22KT 10SM CLR 24/18 A2992 RMK AO2 SLP129 T02440178 10250 20183 51015
KFAR 121653Z 18009G17KT 10SM CLR 24/18 A2992 RMK AO2 SLP128 T02390178
KFAR 121553Z 13006KT 10SM CLR 23/17 A2990 RMK AO2 SLP123 T02330172
KFAR 121511Z 19008KT 10SM FEW120 22/17 A2990 RMK AO2 T02170172
KFAR 121453Z 10004KT 10SM FEW120 21/18 A2987 RMK AO2 SLP114 T02060178 55007
KFAR 121353Z AUTO 13007G22KT 100V160 10SM CLR 19/17 A2984 RMK AO2 PRESRR SLP102 T01940167 TSNO
KFAR 121253Z AUTO 09009KT 10SM CLR 19/17 A2984 RMK AO2 SLP103 T01890167 TSNO
KFAR 121153Z AUTO 14006KT 10SM FEW046 SCT055 SCT070 19/16 A2990 RMK AO2 SLP120 T01890161 10200 20189 50000 TSNO
KFAR 121053Z AUTO 18010KT 10SM BKN035 19/16 A2992 RMK AO2 PRESRR SLP128 T01940161 TSNO
KFAR 120953Z AUTO 14008KT 10SM CLR 19/16 A2988 RMK AO2 SLP115 T01890161 TSNO
KFAR 120853Z AUTO 15008KT 10SM CLR 19/16 A2989 RMK AO2 SLP120 T01940161 58001
KFAR 120753Z AUTO 14008KT 10SM CLR 19/17 A2990 RMK AO2 SLP123 T01890167
KFAR 120653Z AUTO 15006KT 10SM CLR 19/17 A2991 RMK AO2 SLP126 T01940167
KFAR 120553Z AUTO 14007KT 10SM CLR 20/16 A2990 RMK AO2 SLP120 T02000161 10272 20200 402780139 50003
KFAR 120453Z AUTO 14009KT 10SM CLR 21/16 A2990 RMK AO2 SLP123 T02110156
KFAR 120353Z AUTO 13005KT 10SM CLR 21/15 A2990 RMK AO2 SLP123 T02060150
KFAR 120253Z AUTO 13006KT 10SM CLR 21/14 A2989 RMK AO2 SLP119 T02110139 53008
KFAR 120153Z AUTO 14007KT 10SM CLR 23/14 A2987 RMK AO2 SLP112 T02330139
KFAR 120053Z AUTO 13011G19KT 10SM CLR 25/14 A2987 RMK AO2 SLP111 T02500144
KFAR 112353Z 12006KT 10SM CLR 27/17 A2986 RMK AO2 SLP111 T02720172 10278 20244 56006
KFAR 112253Z 17004KT 10SM CLR 28/16 A2986 RMK AO2 SLP110 T02780161
KFAR 112153Z 13010KT 10SM BKN100 27/17 A2987 RMK AO2 SLP111 T02720172
KFAR 112053Z 13007KT 10SM OVC100 26/17 A2988 RMK AO2 SLP116 T02610167 58003
KFAR 111953Z 18006KT 10SM BKN100 26/16 A2990 RMK AO2 SLP122 T02560156
KFAR 111853Z 19007KT 10SM SCT095 BKN120 26/14 A2989 RMK AO2 SLP118 T02610144
KFAR 111753Z 20008KT 10SM SCT100 26/14 A2989 RMK AO2 SLP121 T02610139 10267 20150 58004
KFAR 111653Z 23009KT 10SM CLR 27/16 A2990 RMK AO2 SLP123 T02670156
KFAR 111553Z 24007KT 10SM SCT080 24/16 A2992 RMK AO2 SLP130 T02440161
KFAR 111535Z 26007KT 10SM CLR 24/16 A2992 RMK AO2 T02390156
KFAR 111453Z AUTO 27008KT 10SM CLR 23/15 A2991 RMK AO2 SLP125 T02330150 53004
KFAR 111353Z AUTO 22007KT 10SM CLR 21/14 A2990 RMK AO2 SLP122 T02110144
KFAR 111253Z AUTO 20008KT 10SM CLR 19/14 A2990 RMK AO2 SLP123 T01890139
KFAR 111153Z AUTO 18006KT 10SM CLR 15/13 A2989 RMK AO2 SLP121 T01500133 10189 20139 53015
KFAR 111053Z AUTO 28006KT 10SM CLR 16/13 A2988 RMK AO2 SLP115 T01560128
KFAR 110953Z AUTO 22013KT 10SM CLR 18/13 A2985 RMK AO2 SLP104 T01780128
KFAR 110853Z AUTO 21014KT 10SM CLR 18/12 A2985 RMK AO2 SLP105 T01830122 53002
KFAR 110753Z AUTO 19008KT 10SM CLR 16/10 A2985 RMK AO2 SLP104 T01610100
KFAR 110653Z 19008KT 10SM CLR 16/11 A2985 RMK AO2 SLP104 T01560106
KFAR 110553Z 18009KT 10SM CLR 16/09 A2984 RMK AO2 SLP104 T01560094 10250 20156 402670111 58009
KFAR 110453Z 17009KT 10SM CLR 16/10 A2986 RMK AO2 SLP108 T01610100
KFAR 110353Z 18007KT 10SM CLR 17/11 A2987 RMK AO2 SLP114 T01670106
KFAR 110253Z 20005KT 10SM CLR 18/11 A2987 RMK AO2 SLP115 T01830106 53003
KFAR 110153Z 22005KT 10SM CLR 19/12 A2986 RMK AO2 SLP111 T01890117
KFAR 110053Z 25007KT 10SM CLR 22/12 A2986 RMK AO2 SLP111 T02220117
KFAR 102353Z 24009KT 10SM CLR 25/09 A2986 RMK AO2 SLP112 T02500089 10267 20250 58008
KFAR 102253Z 25012KT 10SM CLR 26/09 A2988 RMK AO2 SLP117 T02610094
KFAR 102153Z 24015G22KT 10SM CLR 27/08 A2989 RMK AO2 SLP120 T02670083
KFAR 102053Z 27016G21KT 10SM CLR 27/07 A2989 RMK AO2 SLP120 T02670067 56019
KFAR 101953Z 27013G25KT 10SM CLR 27/09 A2990 RMK AO2 SLP123 T02670089
KFAR 101853Z 27015KT 10SM CLR 26/09 A2992 RMK AO2 SLP130 T02610089